La Farge, WI (54639)

6:51 PM CDT on August 29, 2015 (GMT -0500)
Haugrud Hollow | | Change Station
CLOSE
Current Station
Personal Weather Station
Location: La Farge, WI
Elevation: 940 ft
Nearby Weather Stations

Elev 940 ft 43.59 °N, 90.76 °W | Updated 6 minutes ago

Overcast
Overcast
68.2 °F
Feels Like 68.2 °F
N
0.0
Wind Variable Wind from North
Gusts 0.0 mph

Today
High -- | Low -- °F
--% Chance of Precip.
Yesterday
High -- | Low -- °F
Precip. -- in
6:22 AM 7:43 PM
Full, 100% visible
Pressure 30.05 in
Visibility 10.0 miles
Clouds Overcast 2400 ft
Dew Point 65 °F
Humidity 90%
Rainfall 0.00 in
Snow Depth Not available.
UV 0 out of 12
Pollen 4.60 out of 12
Air Quality Not available.
Flu Activity Not available.
METAR KCMY 292330Z AUTO 00000KT 10SM OVC024 21/15 A3005 RMK AO2 T02060152
Pressure 30.05 in
Visibility 10.0 miles
Clouds Overcast 2400 ft
Dew Point 65 °F
Humidity 90%
Rainfall 0.00 in
Snow Depth Not available.
UV 0 out of 12
Pollen 4.60 out of 12
Air Quality Not available.
Flu Activity Not available.
METAR KCMY 292330Z AUTO 00000KT 10SM OVC024 21/15 A3005 RMK AO2 T02060152

10-Day Weather Forecast

×

Almanac

Astronomy

Aug. 29, 2015 Rise Set
Actual Time
Civil Twilight
Nautical Twilight
Astronomical Twilight
Moon
Length of Visible Light
Length of Day
Tomorrow will be .
, % of the Moon is Illuminated

Today's Extremes

State Highs State Lows

Community

WunderPhotos

Upload Photos

1,850,784 photos uploaded!

WunderBlogs® & News

Nearby

Air Quality

  Air Quality AQ Index Pollutant
Not available.

Snow Depth

Station Depth Elevation

Earthquake Activity

City Distance Mag. Time & Date
Minimum magnitude displayed is 2.5.

Coastal Water Temperatures

Place Temperature

Stations

Nearby Weather Stations

Station Location Temp. Windchill Dew Point Humidity Wind Precip. Elev Updated Type